createdAt,value
2022-11-10T00:02:15.337Z,74.25
2022-11-10T00:04:45.706Z,74.02
2022-11-10T00:07:16.020Z,74.47
2022-11-10T00:09:46.482Z,74.24
2022-11-10T00:12:16.798Z,74.32
2022-11-10T00:15:05.475Z,74.20
2022-11-10T00:17:39.527Z,74.01
2022-11-10T00:20:11.070Z,73.68
2022-11-10T00:22:42.181Z,74.23
2022-11-10T00:25:12.731Z,74.21
2022-11-10T00:27:43.045Z,73.67
2022-11-10T00:30:14.116Z,73.15
2022-11-10T00:32:44.431Z,73.49
2022-11-10T00:35:14.908Z,73.43
2022-11-10T00:37:45.287Z,73.36
2022-11-10T00:40:15.916Z,73.33
2022-11-10T00:42:46.288Z,73.49
2022-11-10T00:45:16.684Z,72.97
2022-11-10T00:47:47.634Z,73.02
2022-11-10T00:50:18.074Z,72.97
2022-11-10T00:52:48.474Z,73.02
2022-11-10T00:55:18.849Z,72.85
2022-11-10T00:57:49.251Z,73.02
2022-11-10T01:00:19.618Z,72.99
2022-11-10T01:02:50.007Z,73.26
2022-11-10T01:05:20.387Z,73.02
2022-11-10T01:07:50.869Z,72.79
2022-11-10T01:10:21.279Z,72.98
2022-11-10T01:12:51.659Z,72.66
2022-11-10T01:15:27.235Z,72.88
2022-11-10T01:17:56.509Z,72.89
2022-11-10T01:20:26.921Z,72.64
2022-11-10T01:22:57.284Z,72.51
2022-11-10T01:25:27.854Z,72.73
2022-11-10T01:27:58.227Z,72.70
2022-11-10T01:30:28.641Z,72.93
2022-11-10T01:32:59.024Z,72.61
2022-11-10T01:35:29.500Z,72.42
2022-11-10T01:37:59.859Z,72.67
2022-11-10T01:40:30.244Z,72.55
2022-11-10T01:43:00.663Z,72.85
2022-11-10T01:45:54.779Z,72.49
2022-11-10T01:48:31.172Z,73.08
2022-11-10T01:51:04.622Z,73.00
2022-11-10T01:53:38.818Z,72.78
2022-11-10T01:56:10.629Z,72.79
2022-11-10T01:58:44.024Z,73.08
2022-11-10T02:01:15.433Z,72.75
2022-11-10T02:03:49.028Z,73.32
2022-11-10T02:06:22.498Z,73.23
2022-11-10T02:08:53.483Z,73.13
2022-11-10T02:11:24.288Z,73.11
2022-11-10T02:13:55.541Z,73.38
2022-11-10T02:16:26.069Z,73.21
2022-11-10T02:18:56.728Z,73.55
2022-11-10T02:21:27.177Z,73.61
2022-11-10T02:23:57.552Z,73.48
2022-11-10T02:26:30.564Z,73.14
2022-11-10T02:29:01.019Z,72.77
2022-11-10T02:31:31.396Z,73.50
2022-11-10T02:34:01.953Z,73.46
2022-11-10T02:36:32.406Z,73.57
2022-11-10T02:39:02.716Z,73.44
2022-11-10T02:41:36.313Z,73.76
2022-11-10T02:44:07.908Z,73.69
2022-11-10T02:46:38.413Z,73.77
2022-11-10T02:49:08.898Z,73.64
2022-11-10T02:51:39.884Z,73.68
2022-11-10T02:54:10.302Z,73.76
2022-11-10T02:56:40.692Z,73.36
2022-11-10T02:59:11.215Z,73.29
2022-11-10T03:01:41.789Z,73.31
2022-11-10T03:04:12.636Z,72.98
2022-11-10T03:06:43.095Z,73.64
2022-11-10T03:09:13.445Z,73.43
2022-11-10T03:11:43.748Z,73.66
2022-11-10T03:14:14.250Z,73.71
2022-11-10T03:16:44.565Z,73.83
2022-11-10T03:19:14.890Z,74.16
2022-11-10T03:21:45.255Z,74.11
2022-11-10T03:24:15.621Z,73.98
2022-11-10T03:26:46.026Z,74.04
2022-11-10T03:29:16.496Z,74.13
2022-11-10T03:31:48.409Z,74.29
2022-11-10T03:34:18.701Z,74.51
2022-11-10T03:36:49.080Z,74.65
2022-11-10T03:39:19.526Z,74.85
2022-11-10T03:41:52.519Z,74.83
2022-11-10T03:44:22.975Z,74.72
2022-11-10T03:46:53.348Z,74.90
2022-11-10T03:49:23.671Z,75.29
2022-11-10T03:51:54.035Z,75.32
2022-11-10T03:54:24.434Z,75.61
2022-11-10T03:56:55.691Z,75.36
2022-11-10T03:59:26.180Z,75.65
2022-11-10T04:01:56.593Z,75.52
2022-11-10T04:04:44.846Z,75.87
2022-11-10T04:07:33.096Z,76.13
2022-11-10T04:10:03.933Z,76.44
2022-11-10T04:12:52.643Z,76.30
2022-11-10T04:15:40.908Z,75.76
2022-11-10T04:18:21.579Z,76.25
2022-11-10T04:21:00.639Z,76.46
2022-11-10T04:23:36.051Z,76.03
2022-11-10T04:26:30.285Z,76.61
2022-11-10T04:29:02.375Z,76.63
2022-11-10T04:31:35.646Z,76.83
2022-11-10T04:34:07.981Z,77.12
2022-11-10T04:36:39.883Z,77.29
2022-11-10T04:39:11.393Z,77.42
2022-11-10T04:41:41.852Z,77.58
2022-11-10T04:44:12.266Z,77.30
2022-11-10T04:46:44.100Z,77.61
2022-11-10T04:49:14.561Z,77.78
2022-11-10T04:51:44.930Z,77.93
2022-11-10T04:54:15.293Z,77.93
2022-11-10T04:56:45.607Z,78.09
2022-11-10T04:59:15.936Z,78.12
2022-11-10T05:01:46.263Z,77.75
2022-11-10T05:04:16.745Z,78.31
2022-11-10T05:06:47.094Z,78.29
2022-11-10T05:09:17.471Z,78.76
2022-11-10T05:11:47.921Z,78.80
2022-11-10T05:14:18.231Z,78.83
2022-11-10T05:16:48.624Z,78.93
2022-11-10T05:19:19.087Z,78.83
2022-11-10T05:21:50.998Z,79.07
2022-11-10T05:24:21.283Z,79.21
2022-11-10T05:26:51.633Z,78.32
2022-11-10T05:29:22.008Z,79.04
2022-11-10T05:31:52.453Z,79.20
2022-11-10T05:34:23.079Z,78.84
2022-11-10T05:36:53.905Z,79.05
2022-11-10T05:39:24.336Z,79.12
2022-11-10T05:41:54.692Z,79.37
2022-11-10T05:44:25.310Z,79.33
2022-11-10T05:46:55.715Z,79.36
2022-11-10T05:49:27.389Z,79.64
2022-11-10T05:51:57.847Z,79.60
2022-11-10T05:54:28.239Z,79.70
2022-11-10T05:56:58.615Z,79.78
2022-11-10T05:59:28.983Z,79.92
2022-11-10T06:01:59.494Z,79.58
2022-11-10T06:04:29.908Z,80.03
2022-11-10T06:07:00.709Z,80.15
2022-11-10T06:09:31.117Z,79.85
2022-11-10T06:12:03.536Z,80.22
2022-11-10T06:14:33.887Z,80.46
2022-11-10T06:17:04.271Z,80.50
2022-11-10T06:19:34.661Z,80.76
2022-11-10T06:22:07.769Z,80.46
2022-11-10T06:24:37.493Z,80.82
2022-11-10T06:27:07.984Z,80.65
2022-11-10T06:29:38.388Z,80.72
2022-11-10T06:32:08.740Z,80.65
2022-11-10T06:34:39.161Z,80.55
2022-11-10T06:37:09.636Z,81.01
2022-11-10T06:39:40.014Z,81.02
2022-11-10T06:42:10.305Z,80.83
2022-11-10T06:44:40.679Z,81.09
2022-11-10T06:47:11.005Z,80.78
2022-11-10T06:49:41.389Z,81.00
2022-11-10T06:52:11.874Z,81.06
2022-11-10T06:54:42.317Z,81.13
2022-11-10T06:57:12.627Z,80.81
2022-11-10T06:59:43.215Z,80.87
2022-11-10T07:02:17.175Z,80.77
2022-11-10T07:04:49.295Z,80.88
2022-11-10T07:07:19.761Z,80.80
2022-11-10T07:09:50.155Z,80.72
2022-11-10T07:12:20.469Z,80.00
2022-11-10T07:14:50.916Z,79.52
2022-11-10T07:17:22.186Z,78.97
2022-11-10T07:19:52.687Z,79.45
2022-11-10T07:22:23.426Z,79.38
2022-11-10T07:24:53.680Z,79.30
2022-11-10T07:27:24.116Z,79.38
2022-11-10T07:29:54.591Z,79.12
2022-11-10T07:32:25.043Z,79.41
2022-11-10T07:34:55.424Z,79.57
2022-11-10T07:37:25.764Z,79.57
2022-11-10T07:39:56.271Z,79.72
2022-11-10T07:42:26.669Z,79.94
2022-11-10T07:44:57.060Z,79.79
2022-11-10T07:47:27.446Z,79.86
2022-11-10T07:49:57.830Z,80.22
2022-11-10T07:52:28.273Z,80.06
2022-11-10T07:54:58.779Z,80.40
2022-11-10T07:57:29.132Z,80.40
2022-11-10T07:59:59.659Z,79.86
2022-11-10T08:02:30.042Z,79.42
2022-11-10T08:05:00.461Z,78.89
2022-11-10T08:07:31.098Z,79.08
2022-11-10T08:10:01.664Z,78.76
2022-11-10T08:12:33.806Z,78.76
2022-11-10T08:15:05.041Z,78.76
2022-11-10T08:17:35.462Z,78.63
2022-11-10T08:20:06.668Z,78.71
2022-11-10T08:22:37.198Z,78.67
2022-11-10T08:25:08.288Z,78.60
2022-11-10T08:27:38.789Z,78.33
2022-11-10T08:30:09.927Z,78.11
2022-11-10T08:32:40.408Z,77.70
2022-11-10T08:35:10.784Z,77.31
2022-11-10T08:37:41.178Z,77.30
2022-11-10T08:40:12.340Z,76.57
2022-11-10T08:42:42.694Z,76.99
2022-11-10T08:45:14.000Z,77.02
2022-11-10T08:47:44.683Z,77.01
2022-11-10T08:50:15.312Z,77.13
2022-11-10T08:52:45.671Z,77.15
2022-11-10T08:55:16.138Z,76.83
2022-11-10T08:57:46.983Z,76.35
2022-11-10T09:00:18.453Z,75.85
2022-11-10T09:02:48.760Z,74.58
2022-11-10T09:05:19.056Z,70.85
2022-11-10T09:07:51.479Z,66.80
2022-11-10T09:10:21.799Z,64.38
2022-11-10T09:12:52.181Z,63.24
2022-11-10T09:15:22.591Z,62.90
2022-11-10T09:17:53.033Z,63.63
2022-11-10T09:20:23.504Z,63.79
2022-11-10T09:22:53.873Z,64.65
2022-11-10T09:25:24.788Z,65.43
2022-11-10T09:27:55.091Z,66.36
2022-11-10T09:30:26.301Z,65.67
2022-11-10T09:32:58.106Z,66.29
2022-11-10T09:35:28.685Z,67.18
2022-11-10T09:37:59.055Z,67.03
2022-11-10T09:40:41.244Z,65.36
2022-11-10T09:43:14.695Z,62.69
2022-11-10T09:45:47.841Z,66.20
2022-11-10T09:48:30.161Z,64.04
2022-11-10T09:51:09.751Z,64.46
2022-11-10T09:53:46.072Z,66.50
2022-11-10T09:56:19.550Z,66.05
2022-11-10T09:58:50.705Z,67.62
2022-11-10T10:01:39.235Z,68.76
2022-11-10T10:04:35.428Z,67.16
2022-11-10T10:07:14.406Z,68.51
2022-11-10T10:09:53.891Z,69.21
2022-11-10T10:12:30.344Z,66.44
2022-11-10T10:15:28.368Z,65.60
2022-11-10T10:18:18.404Z,65.97
2022-11-10T10:21:12.778Z,69.00
2022-11-10T10:24:08.583Z,67.06
2022-11-10T10:26:23.830Z,67.81
2022-11-10T10:28:55.239Z,69.46
2022-11-10T10:31:33.957Z,70.46
2022-11-10T10:34:05.172Z,70.24
2022-11-10T10:36:35.457Z,70.42
2022-11-10T10:39:18.061Z,70.83
2022-11-10T10:41:48.880Z,70.56
2022-11-10T10:44:20.646Z,70.24
2022-11-10T10:47:00.320Z,69.88
2022-11-10T10:49:36.748Z,69.06
2022-11-10T10:52:15.287Z,68.37
2022-11-10T10:54:45.763Z,68.46
2022-11-10T10:57:31.219Z,68.02
2022-11-10T11:00:25.214Z,68.68
2022-11-10T11:03:07.286Z,69.31
2022-11-10T11:05:37.738Z,70.27
2022-11-10T11:08:11.220Z,69.66
2022-11-10T11:10:44.777Z,69.38
2022-11-10T11:13:26.605Z,68.47
2022-11-10T11:16:01.703Z,68.90
2022-11-10T11:18:33.469Z,68.31
2022-11-10T11:21:16.041Z,68.08
2022-11-10T11:24:08.677Z,67.41
2022-11-10T11:27:03.240Z,69.02
2022-11-10T11:29:45.258Z,63.42
2022-11-10T11:32:41.124Z,62.63
2022-11-10T11:35:35.783Z,59.28
2022-11-10T11:38:27.558Z,60.19
2022-11-10T11:41:28.389Z,61.63
2022-11-10T11:44:21.240Z,61.56
2022-11-10T11:46:57.631Z,61.63
2022-11-10T11:49:52.123Z,64.99
2022-11-10T11:52:46.895Z,66.30
2022-11-10T11:55:28.650Z,64.45
2022-11-10T11:58:35.329Z,65.40
2022-11-10T12:01:14.459Z,66.63
2022-11-10T12:04:24.176Z,66.86
2022-11-10T12:07:03.526Z,67.39
2022-11-10T12:09:39.511Z,68.37
2022-11-10T12:12:36.650Z,68.85
2022-11-10T12:15:21.843Z,69.01
2022-11-10T12:17:58.108Z,69.08
2022-11-10T12:20:48.934Z,69.06
2022-11-10T12:23:37.178Z,68.81
2022-11-10T12:26:13.269Z,68.45
2022-11-10T12:28:46.679Z,68.08
2022-11-10T12:31:20.572Z,68.21
2022-11-10T12:33:56.982Z,68.62
2022-11-10T12:36:29.906Z,69.08
2022-11-10T12:39:09.529Z,68.63
2022-11-10T12:41:55.419Z,69.72
2022-11-10T12:44:46.971Z,70.21
2022-11-10T12:47:20.354Z,70.39
2022-11-10T12:50:12.163Z,69.71
2022-11-10T12:52:45.580Z,69.41
2022-11-10T12:55:16.414Z,69.13
2022-11-10T12:57:47.645Z,67.94
2022-11-10T13:00:27.793Z,67.92
2022-11-10T13:02:56.805Z,67.81
2022-11-10T13:05:30.284Z,66.82
2022-11-10T13:08:21.144Z,66.39
2022-11-10T13:11:15.377Z,66.77
2022-11-10T13:14:00.747Z,66.49
2022-11-10T13:16:47.276Z,65.25
2022-11-10T13:19:33.717Z,63.64
2022-11-10T13:22:07.408Z,63.77
2022-11-10T13:24:40.875Z,63.67
2022-11-10T13:27:14.300Z,64.41
2022-11-10T13:29:47.810Z,64.70
2022-11-10T13:32:36.602Z,65.88
2022-11-10T13:35:32.696Z,66.11
2022-11-10T13:38:03.192Z,66.11
2022-11-10T13:40:36.173Z,67.02
2022-11-10T13:43:21.865Z,66.80
2022-11-10T13:45:55.234Z,67.24
2022-11-10T13:48:55.802Z,67.03
2022-11-10T13:51:46.319Z,67.35
2022-11-10T13:54:22.813Z,67.74
2022-11-10T13:57:01.948Z,68.01
2022-11-10T13:59:37.107Z,67.65
2022-11-10T14:02:36.448Z,68.06
2022-11-10T14:05:09.723Z,68.07
2022-11-10T14:07:45.506Z,68.44
2022-11-10T14:10:19.292Z,68.02
2022-11-10T14:12:55.688Z,67.95
2022-11-10T14:15:37.805Z,67.20
2022-11-10T14:18:20.063Z,68.25
2022-11-10T14:20:56.571Z,68.26
2022-11-10T14:23:36.331Z,68.83
2022-11-10T14:26:09.778Z,69.12
2022-11-10T14:28:40.650Z,69.25
2022-11-10T14:31:25.798Z,69.20
2022-11-10T14:33:59.811Z,69.35
2022-11-10T14:36:30.806Z,69.65
2022-11-10T14:39:02.832Z,69.75
2022-11-10T14:41:33.304Z,69.82
2022-11-10T14:44:08.738Z,69.87
2022-11-10T14:46:39.201Z,69.85
2022-11-10T14:49:11.741Z,69.92
2022-11-10T14:51:42.138Z,69.75
2022-11-10T14:54:14.930Z,69.48
2022-11-10T14:56:47.133Z,69.14
2022-11-10T14:59:19.341Z,69.13
2022-11-10T15:01:55.700Z,69.41
2022-11-10T15:04:31.853Z,69.70
2022-11-10T15:07:03.000Z,69.58
2022-11-10T15:09:33.895Z,69.80
2022-11-10T15:12:19.544Z,70.12
2022-11-10T15:14:53.018Z,70.10
2022-11-10T15:17:24.928Z,69.85
2022-11-10T15:19:56.112Z,69.84
2022-11-10T15:22:32.602Z,70.24
2022-11-10T15:25:11.681Z,70.77
2022-11-10T15:27:43.476Z,70.89
2022-11-10T15:30:24.752Z,70.37
2022-11-10T15:33:00.945Z,70.73
2022-11-10T15:35:33.551Z,70.99
2022-11-10T15:38:15.562Z,71.35
2022-11-10T15:40:49.948Z,71.05
2022-11-10T15:43:26.789Z,70.58
2022-11-10T15:46:03.113Z,71.41
2022-11-10T15:48:38.881Z,71.53
2022-11-10T15:51:11.979Z,71.53
2022-11-10T15:53:47.958Z,71.76
2022-11-10T15:56:21.286Z,71.55
2022-11-10T15:59:01.848Z,71.52
2022-11-10T16:01:31.197Z,71.21
2022-11-10T16:04:01.633Z,71.31
2022-11-10T16:06:32.357Z,71.49
2022-11-10T16:09:02.907Z,71.71
2022-11-10T16:11:37.174Z,72.20
2022-11-10T16:14:09.357Z,72.42
2022-11-10T16:16:40.627Z,72.29
2022-11-10T16:19:14.214Z,72.90
2022-11-10T16:21:44.605Z,73.03
2022-11-10T16:24:14.984Z,73.64
2022-11-10T16:26:45.862Z,73.68
2022-11-10T16:29:18.600Z,73.63
2022-11-10T16:31:50.334Z,73.90
2022-11-10T16:34:20.864Z,74.13
2022-11-10T16:36:51.373Z,74.66
2022-11-10T16:39:21.848Z,74.02
2022-11-10T16:41:52.356Z,74.38
2022-11-10T16:44:25.296Z,74.42
2022-11-10T16:46:57.315Z,74.43
2022-11-10T16:49:31.553Z,74.08
2022-11-10T16:52:07.649Z,74.45
2022-11-10T16:54:38.196Z,74.43
2022-11-10T16:57:11.703Z,74.28
2022-11-10T16:59:43.952Z,74.38
2022-11-10T17:02:34.066Z,73.90
2022-11-10T17:05:05.354Z,74.47
2022-11-10T17:07:36.523Z,74.54
2022-11-10T17:10:08.145Z,74.17
2022-11-10T17:12:38.537Z,74.12
2022-11-10T17:15:11.106Z,73.95
2022-11-10T17:17:43.583Z,73.31
2022-11-10T17:20:29.083Z,72.89
2022-11-10T17:23:01.057Z,72.73
2022-11-10T17:25:34.469Z,72.57
2022-11-10T17:28:05.033Z,72.29
2022-11-10T17:30:35.491Z,72.13
2022-11-10T17:33:06.118Z,72.35
2022-11-10T17:35:48.336Z,72.06
2022-11-10T17:38:27.737Z,72.01
2022-11-10T17:40:58.610Z,71.89
2022-11-10T17:43:28.984Z,71.78
2022-11-10T17:46:00.301Z,71.89
2022-11-10T17:48:30.718Z,72.08
2022-11-10T17:51:02.140Z,71.87
2022-11-10T17:53:33.150Z,71.88
2022-11-10T17:56:03.524Z,71.65
2022-11-10T17:58:33.930Z,71.57
2022-11-10T18:01:05.871Z,71.17
2022-11-10T18:03:36.223Z,71.08
2022-11-10T18:06:07.633Z,71.31
2022-11-10T18:08:38.437Z,71.15
2022-11-10T18:11:10.940Z,71.36
2022-11-10T18:13:42.602Z,71.26
2022-11-10T18:16:14.387Z,71.39
2022-11-10T18:18:44.771Z,71.23
2022-11-10T18:21:15.247Z,71.46
2022-11-10T18:23:46.095Z,71.54
2022-11-10T18:26:16.526Z,71.33
2022-11-10T18:28:48.670Z,71.36
2022-11-10T18:31:19.092Z,70.83
2022-11-10T18:33:49.536Z,71.13
2022-11-10T18:36:19.844Z,71.05
2022-11-10T18:38:50.121Z,71.04
2022-11-10T18:41:38.640Z,71.09
2022-11-10T18:44:09.049Z,70.87
2022-11-10T18:46:39.416Z,71.15
2022-11-10T18:49:10.214Z,71.28
2022-11-10T18:51:40.595Z,71.07
2022-11-10T18:54:12.983Z,71.33
2022-11-10T18:56:43.752Z,71.64
2022-11-10T18:59:15.150Z,71.46
2022-11-10T19:01:45.797Z,71.64
2022-11-10T19:04:16.352Z,71.45
2022-11-10T19:06:47.144Z,71.62
2022-11-10T19:09:17.752Z,71.55
2022-11-10T19:11:48.074Z,71.74
2022-11-10T19:14:18.475Z,71.53
2022-11-10T19:16:48.973Z,71.43
2022-11-10T19:19:19.297Z,71.55
2022-11-10T19:21:49.624Z,71.66
2022-11-10T19:24:28.181Z,71.64
2022-11-10T19:26:57.411Z,72.02
2022-11-10T19:29:27.495Z,71.57
2022-11-10T19:31:58.026Z,71.69
2022-11-10T19:34:28.443Z,71.59
2022-11-10T19:36:58.830Z,72.09
2022-11-10T19:39:29.336Z,72.24
2022-11-10T19:41:59.732Z,72.41
2022-11-10T19:44:30.223Z,72.38
2022-11-10T19:47:00.698Z,72.61
2022-11-10T19:49:32.256Z,72.59
2022-11-10T19:52:02.662Z,72.57
2022-11-10T19:54:33.184Z,72.45
2022-11-10T19:57:03.708Z,72.54
2022-11-10T19:59:34.397Z,72.51
2022-11-10T20:02:04.871Z,72.59
2022-11-10T20:04:37.021Z,72.42
2022-11-10T20:07:25.355Z,72.64
2022-11-10T20:09:55.876Z,72.08
2022-11-10T20:12:26.204Z,72.15
2022-11-10T20:14:56.809Z,72.25
2022-11-10T20:17:27.206Z,72.39
2022-11-10T20:19:57.597Z,72.60
2022-11-10T20:22:28.130Z,72.28
2022-11-10T20:24:59.020Z,72.61
2022-11-10T20:27:29.995Z,72.57
2022-11-10T20:30:00.444Z,72.69
2022-11-10T20:32:31.181Z,72.35
2022-11-10T20:35:01.875Z,72.55
2022-11-10T20:37:35.662Z,72.28
2022-11-10T20:40:37.695Z,72.69
2022-11-10T20:42:42.830Z,72.70
2022-11-10T20:45:12.800Z,72.62
2022-11-10T20:47:43.191Z,73.01
2022-11-10T20:50:17.140Z,72.88
2022-11-10T20:52:46.174Z,73.00
2022-11-10T20:55:18.525Z,73.12
2022-11-10T20:57:48.994Z,73.62
2022-11-10T21:00:19.896Z,73.57
2022-11-10T21:02:50.254Z,73.53
2022-11-10T21:05:20.672Z,73.77
2022-11-10T21:07:51.046Z,73.99
2022-11-10T21:10:21.445Z,74.24
2022-11-10T21:12:51.960Z,74.17
2022-11-10T21:15:22.512Z,73.93
2022-11-10T21:17:52.867Z,74.14
2022-11-10T21:20:23.285Z,74.27
2022-11-10T21:22:55.186Z,73.85
2022-11-10T21:25:25.869Z,74.10
2022-11-10T21:27:56.243Z,74.57
2022-11-10T21:30:26.577Z,74.79
2022-11-10T21:32:57.082Z,75.14
2022-11-10T21:35:27.578Z,75.58
2022-11-10T21:37:57.886Z,75.57
2022-11-10T21:40:28.283Z,75.52
2022-11-10T21:42:59.508Z,75.95
2022-11-10T21:45:29.906Z,76.25
2022-11-10T21:48:04.255Z,76.69
2022-11-10T21:50:34.682Z,76.32
2022-11-10T21:53:10.753Z,76.81
2022-11-10T21:55:41.169Z,76.11
2022-11-10T21:58:11.611Z,76.69
2022-11-10T22:00:41.967Z,76.50
2022-11-10T22:03:12.471Z,76.58
2022-11-10T22:05:42.886Z,77.40
2022-11-10T22:08:13.276Z,77.71
2022-11-10T22:11:01.772Z,77.61
2022-11-10T22:13:50.249Z,77.41
2022-11-10T22:16:50.487Z,77.93
2022-11-10T22:19:20.967Z,78.10
2022-11-10T22:21:51.396Z,78.36
2022-11-10T22:24:26.474Z,78.36
2022-11-10T22:26:59.144Z,78.41
2022-11-10T22:29:33.739Z,78.57
2022-11-10T22:32:04.609Z,78.19
2022-11-10T22:34:34.962Z,78.20
2022-11-10T22:37:05.495Z,78.47
2022-11-10T22:39:53.711Z,78.41
2022-11-10T22:42:41.900Z,78.40
2022-11-10T22:45:12.299Z,78.61
2022-11-10T22:48:00.575Z,78.91
2022-11-10T22:50:31.018Z,78.86
2022-11-10T22:53:01.412Z,79.12
2022-11-10T22:55:31.868Z,78.92
2022-11-10T22:58:02.254Z,78.87
2022-11-10T23:00:32.628Z,79.20
2022-11-10T23:03:03.061Z,79.46
2022-11-10T23:05:39.441Z,79.69
2022-11-10T23:08:09.813Z,79.35
2022-11-10T23:10:40.247Z,79.29
2022-11-10T23:13:10.599Z,79.67
2022-11-10T23:15:41.959Z,79.77
2022-11-10T23:18:12.340Z,79.91
2022-11-10T23:20:42.765Z,79.59
2022-11-10T23:23:13.312Z,79.75
2022-11-10T23:25:43.716Z,79.73
2022-11-10T23:28:14.082Z,79.88
2022-11-10T23:30:44.480Z,79.76
2022-11-10T23:33:14.907Z,79.99
2022-11-10T23:35:45.522Z,80.30
2022-11-10T23:38:16.272Z,80.55
2022-11-10T23:40:46.784Z,80.83
2022-11-10T23:43:17.155Z,80.79
2022-11-10T23:46:05.920Z,81.03
2022-11-10T23:48:20.023Z,81.22
2022-11-10T23:50:51.094Z,81.08
2022-11-10T23:53:21.758Z,80.97
2022-11-10T23:56:00.357Z,81.12
2022-11-10T23:58:31.632Z,80.88
